Time;durP1;ratioP1;P1;durP2;ratioP2;P2;SDS_P1;SDS_P2;PMS_P1;PMS_P2;Temp;Humidity;BMP_temperature;BMP_pressure;BME280_temperature;BME280_humidity;BME280_pressure;Samples;Min_cycle;Max_cycle;Signal;HPM_P1;HPM_P2
2021/11/16 00:02:25;;;;;;;75.28;34.58;;;;;;;-1.69;68.58;103202.81;1849658;77;20870;-70
2021/11/16 00:04:52;;;;;;;55.45;26.62;;;;;;;-1.72;68.75;103205.30;1849550;77;20964;-69
2021/11/16 00:07:19;;;;;;;68.05;30.40;;;;;;;-1.76;68.78;103215.02;1849393;76;21482;-70
2021/11/16 00:09:46;;;;;;;73.25;33.40;;;;;;;-1.80;68.75;103211.49;1849477;77;21042;-69
2021/11/16 00:12:13;;;;;;;68.35;30.43;;;;;;;-1.88;68.68;103211.22;1845092;75;20887;-69
2021/11/16 00:14:41;;;;;;;58.50;27.55;;;;;;;-1.98;68.92;103204.42;1834919;76;20867;-70
2021/11/16 00:17:08;;;;;;;54.53;24.55;;;;;;;-2.04;69.02;103207.69;1834826;77;20981;-70
2021/11/16 00:19:35;;;;;;;48.25;24.25;;;;;;;-2.09;69.20;103204.06;1835018;76;20914;-70
2021/11/16 00:22:02;;;;;;;43.25;22.77;;;;;;;-2.15;69.44;103203.45;1834792;76;21105;-70
2021/11/16 00:27:01;;;;;;;44.40;21.80;;;;;;;-2.09;69.73;103209.20;1773701;77;20902;-70
2021/11/16 00:29:29;;;;;;;38.15;19.30;;;;;;;-2.05;69.71;103214.05;1834720;77;20970;-69
2021/11/16 00:31:56;;;;;;;44.70;21.15;;;;;;;-2.03;69.63;103211.12;1834843;77;20851;-69
2021/11/16 00:34:23;;;;;;;47.58;23.95;;;;;;;-2.02;69.57;103211.56;1835194;77;21474;-70
2021/11/16 00:36:50;;;;;;;47.67;22.87;;;;;;;-2.05;69.40;103205.91;1834654;77;20926;-71
2021/11/16 00:39:17;;;;;;;47.08;23.42;;;;;;;-2.13;69.61;103211.23;1834774;77;21800;-70
2021/11/16 00:41:44;;;;;;;53.17;24.85;;;;;;;-2.16;69.92;103209.81;1834523;78;21341;-70
2021/11/16 00:44:10;;;;;;;41.85;20.95;;;;;;;-2.16;70.09;103205.96;1834981;78;20902;-71
2021/11/16 00:46:37;;;;;;;41.30;23.10;;;;;;;-2.18;70.02;103205.94;1835389;78;21391;-70
2021/11/16 00:49:04;;;;;;;50.50;24.30;;;;;;;-2.26;70.18;103198.36;1834710;77;20875;-70
2021/11/16 00:51:31;;;;;;;63.10;28.25;;;;;;;-2.23;70.44;103202.73;1834958;76;20883;-70
2021/11/16 00:53:58;;;;;;;57.58;27.30;;;;;;;-2.23;70.30;103206.58;1834836;77;20954;-70
2021/11/16 00:56:25;;;;;;;43.28;24.87;;;;;;;-2.23;70.17;103202.73;1834880;77;20871;-70
2021/11/16 00:58:52;;;;;;;56.18;25.65;;;;;;;-2.25;70.11;103204.36;1834712;77;21125;-69
2021/11/16 01:01:18;;;;;;;49.67;27.50;;;;;;;-2.28;70.06;103208.12;1834662;78;20903;-70
2021/11/16 01:03:45;;;;;;;59.00;28.90;;;;;;;-2.35;70.28;103210.89;1834765;76;20887;-70
2021/11/16 01:06:12;;;;;;;60.25;28.75;;;;;;;-2.36;70.21;103209.13;1834854;77;21392;-70
2021/11/16 01:08:40;;;;;;;59.42;28.10;;;;;;;-2.40;70.25;103202.13;1834743;78;20954;-70
2021/11/16 01:11:07;;;;;;;28.10;14.58;;;;;;;-2.44;70.42;103199.87;1834765;76;21505;-69
2021/11/16 01:13:35;;;;;;;56.60;27.90;;;;;;;-2.48;70.67;103203.15;1845090;77;20810;-72
2021/11/16 01:16:02;;;;;;;48.48;21.93;;;;;;;-2.48;70.92;103197.14;1849285;76;20901;-70
2021/11/16 01:18:29;;;;;;;53.78;25.97;;;;;;;-2.45;70.82;103198.52;1849005;76;20894;-70
2021/11/16 01:20:57;;;;;;;52.60;21.97;;;;;;;-2.44;70.71;103195.16;1849247;77;20870;-72
2021/11/16 01:23:24;;;;;;;64.60;29.27;;;;;;;-2.50;70.86;103193.23;1849132;77;21507;-70
2021/11/16 01:25:51;;;;;;;68.35;32.15;;;;;;;-2.50;71.07;103197.08;1849304;77;21287;-70
2021/11/16 01:28:22;;;;;;;74.77;34.20;;;;;;;-2.51;70.83;103197.50;1849403;77;20853;-69
2021/11/16 01:30:49;;;;;;;71.55;34.40;;;;;;;-2.55;70.60;103202.47;1848781;77;21449;-69
2021/11/16 01:33:20;;;;;;;63.33;31.52;;;;;;;-2.61;70.54;103194.54;1849187;77;21378;-69
2021/11/16 01:35:46;;;;;;;63.15;31.52;;;;;;;-2.66;70.55;103194.38;1848999;77;21567;-69
2021/11/16 01:38:15;;;;;;;80.30;36.88;;;;;;;-2.72;70.55;103200.56;1849068;77;20865;-70
2021/11/16 01:40:43;;;;;;;65.05;31.35;;;;;;;-2.79;70.46;103197.31;1849268;77;20878;-70
2021/11/16 01:43:10;;;;;;;73.67;34.33;;;;;;;-2.86;70.56;103196.21;1849146;77;21483;-70
2021/11/16 01:45:39;;;;;;;60.38;31.15;;;;;;;-2.93;70.63;103197.67;1849303;77;21455;-70
2021/11/16 01:48:07;;;;;;;64.40;27.55;;;;;;;-2.97;70.52;103197.50;1849295;77;21111;-70
2021/11/16 01:50:34;;;;;;;53.58;23.15;;;;;;;-3.05;70.40;103202.33;1849043;76;21400;-72
2021/11/16 01:53:01;;;;;;;38.00;21.05;;;;;;;-3.16;70.50;103195.53;1849359;77;20894;-70
2021/11/16 01:55:28;;;;;;;43.25;19.80;;;;;;;-3.18;70.51;103194.98;1849241;76;20972;-71
2021/11/16 01:57:56;;;;;;;36.42;19.60;;;;;;;-3.23;70.57;103190.95;1849129;77;20838;-71
2021/11/16 02:00:27;;;;;;;43.45;21.45;;;;;;;-3.20;71.05;103196.61;1849419;77;21101;-70
2021/11/16 02:02:54;;;;;;;42.13;19.77;;;;;;;-3.18;71.15;103192.03;1849165;77;20870;-71
2021/11/16 02:05:22;;;;;;;47.27;23.83;;;;;;;-3.17;71.28;103187.77;1849601;77;20886;-70
2021/11/16 02:07:49;;;;;;;69.62;29.52;;;;;;;-3.18;71.24;103184.33;1823235;77;20933;-69
2021/11/16 02:10:16;;;;;;;48.80;23.27;;;;;;;-3.17;71.22;103179.66;1849710;77;20866;-71
2021/11/16 02:12:43;;;;;;;50.52;24.10;;;;;;;-3.14;71.17;103185.30;1849149;77;21155;-70
2021/11/16 02:15:12;;;;;;;46.05;21.52;;;;;;;-3.16;71.04;103186.55;1849040;76;20932;-70
2021/11/16 02:17:40;;;;;;;37.63;19.45;;;;;;;-3.18;70.89;103186.00;1849208;77;20929;-70
2021/11/16 02:20:08;;;;;;;35.50;19.95;;;;;;;-3.24;70.82;103189.64;1849225;76;21327;-71
2021/11/16 02:22:35;;;;;;;38.33;18.35;;;;;;;-3.28;70.68;103189.05;1849174;77;20861;-71
2021/11/16 02:27:56;;;;;;;43.52;22.00;;;;;;;-3.32;70.72;103193.17;1890451;75;22236;-71
2021/11/16 02:30:27;;;;;;;43.23;20.85;;;;;;;-3.45;70.82;103191.81;1861354;77;20875;-70
2021/11/16 02:32:55;;;;;;;45.43;23.05;;;;;;;-3.53;71.05;103189.37;1860121;77;21158;-71
2021/11/16 02:35:27;;;;;;;40.00;20.82;;;;;;;-3.59;71.12;103195.53;1828239;77;20983;-71
2021/11/16 02:37:56;;;;;;;35.58;19.02;;;;;;;-3.69;71.15;103201.99;1815847;79;21346;-71
2021/11/16 02:40:23;;;;;;;42.83;20.45;;;;;;;-3.78;71.38;103200.30;1815350;79;21338;-71
2021/11/16 02:42:50;;;;;;;33.88;18.48;;;;;;;-3.82;71.72;103195.48;1815918;79;20861;-71
2021/11/16 02:45:17;;;;;;;46.58;21.42;;;;;;;-3.80;71.71;103187.83;1815868;77;21747;-70
2021/11/16 02:47:45;;;;;;;35.00;19.67;;;;;;;-3.76;72.13;103193.55;1816055;79;20900;-71
2021/11/16 02:50:12;;;;;;;44.65;20.52;;;;;;;-3.67;72.12;103193.05;1815825;79;20908;-72
2021/11/16 02:52:39;;;;;;;37.95;19.87;;;;;;;-3.63;72.16;103187.24;1816038;79;21397;-72
2021/11/16 02:55:07;;;;;;;45.70;19.67;;;;;;;-3.57;71.95;103184.93;1815850;78;20907;-70
2021/11/16 02:57:35;;;;;;;46.63;21.33;;;;;;;-3.52;71.73;103180.84;1815829;79;21629;-71
2021/11/16 03:00:09;;;;;;;47.33;20.62;;;;;;;-3.51;71.56;103186.46;1815681;79;21433;-71
2021/11/16 03:02:42;;;;;;;42.10;21.07;;;;;;;-3.50;71.82;103189.89;1816305;79;20879;-70
2021/11/16 03:05:09;;;;;;;44.25;19.82;;;;;;;-3.48;71.67;103186.98;1785942;79;20865;-71
2021/11/16 03:07:46;;;;;;;44.95;20.97;;;;;;;-3.49;71.36;103190.34;1816009;77;20845;-70
2021/11/16 03:10:10;;;;;;;42.45;20.60;;;;;;;-3.53;71.17;103193.22;1815658;79;21800;-71
2021/11/16 03:12:37;;;;;;;41.95;19.67;;;;;;;-3.61;70.84;103194.18;1815989;77;20998;-70
2021/11/16 03:15:06;;;;;;;39.18;18.45;;;;;;;-3.73;70.80;103198.83;1815860;78;20871;-72
2021/11/16 03:17:33;;;;;;;33.55;18.17;;;;;;;-3.83;71.14;103199.25;1816025;79;20925;-70
2021/11/16 03:20:00;;;;;;;36.03;18.00;;;;;;;-3.90;71.44;103193.00;1815871;77;20916;-71
2021/11/16 03:22:35;;;;;;;44.50;19.95;;;;;;;-3.90;71.46;103195.56;1815684;77;21150;-71
2021/11/16 03:24:58;;;;;;;42.70;22.50;;;;;;;-3.93;71.60;103204.42;1814629;77;21397;-71
2021/11/16 03:27:35;;;;;;;46.83;23.10;;;;;;;-3.96;71.64;103196.58;1815868;78;20873;-72
2021/11/16 03:30:00;;;;;;;38.50;20.12;;;;;;;-4.00;71.89;103194.31;1815266;79;20884;-72
2021/11/16 03:32:36;;;;;;;42.40;19.32;;;;;;;-3.97;72.04;103184.18;1816108;79;20891;-71
2021/11/16 03:34:55;;;;;;;38.65;19.27;;;;;;;-3.96;72.20;103188.89;1813645;79;21136;-70
2021/11/16 03:37:25;;;;;;;40.65;20.92;;;;;;;-3.96;72.31;103191.08;1816448;79;20904;-72
2021/11/16 03:39:53;;;;;;;46.85;20.90;;;;;;;-3.94;72.64;103180.00;1815346;78;21397;-70
2021/11/16 03:42:20;;;;;;;37.58;19.17;;;;;;;-3.86;72.66;103179.50;1815677;79;20951;-71
2021/11/16 03:44:46;;;;;;;35.23;19.00;;;;;;;-3.85;72.41;103189.34;1815287;79;20991;-71
2021/11/16 03:47:13;;;;;;;43.20;20.10;;;;;;;-3.85;72.17;103195.75;1815433;79;21165;-70
2021/11/16 03:49:40;;;;;;;41.28;21.33;;;;;;;-3.91;72.09;103184.86;1815006;77;20865;-72
2021/11/16 03:52:08;;;;;;;47.20;22.85;;;;;;;-3.93;72.06;103177.50;1815209;79;20943;-71
2021/11/16 03:54:35;;;;;;;39.08;20.43;;;;;;;-3.95;72.01;103182.97;1815308;79;20896;-71
2021/11/16 03:57:02;;;;;;;29.85;13.40;;;;;;;-3.94;71.80;103183.84;1815539;79;20920;-71
2021/11/16 03:59:31;;;;;;;43.00;20.20;;;;;;;-3.98;71.73;103181.16;1815127;77;21545;-70
2021/11/16 04:01:58;;;;;;;33.73;18.48;;;;;;;-3.97;71.79;103182.90;1815142;79;20956;-70
2021/11/16 04:04:25;;;;;;;39.53;18.67;;;;;;;-3.96;71.86;103185.95;1815008;79;20927;-71
2021/11/16 04:06:54;;;;;;;41.58;18.80;;;;;;;-3.93;71.59;103192.88;1815122;79;21428;-71
2021/11/16 04:09:21;;;;;;;43.05;19.10;;;;;;;-3.96;71.42;103184.67;1815314;77;20923;-70
2021/11/16 04:11:48;;;;;;;46.83;20.30;;;;;;;-3.98;71.40;103186.29;1815358;78;21103;-70
2021/11/16 04:14:15;;;;;;;46.77;22.02;;;;;;;-4.01;71.41;103194.24;1815290;79;21378;-71
2021/11/16 04:16:42;;;;;;;46.90;21.05;;;;;;;-4.02;71.55;103195.94;1784283;79;20904;-70
2021/11/16 04:19:10;;;;;;;45.20;20.85;;;;;;;-4.02;71.63;103190.81;1815062;77;20931;-70
2021/11/16 04:21:37;;;;;;;39.45;18.65;;;;;;;-4.01;71.44;103192.96;1815405;79;20829;-70
2021/11/16 04:24:04;;;;;;;36.17;16.20;;;;;;;-4.05;71.37;103200.05;1815168;78;21118;-71
2021/11/16 04:26:33;;;;;;;31.27;16.17;;;;;;;-4.10;71.17;103198.58;1818011;78;21570;-71
2021/11/16 04:29:00;;;;;;;29.70;17.35;;;;;;;-4.15;71.22;103197.52;1833013;78;20883;-70
2021/11/16 04:31:28;;;;;;;31.60;17.00;;;;;;;-4.19;71.21;103192.66;1833389;78;20915;-72
2021/11/16 04:34:04;;;;;;;30.30;15.58;;;;;;;-4.18;71.33;103184.17;1833125;78;20899;-71
2021/11/16 04:36:31;;;;;;;20.75;9.28;;;;;;;-4.17;71.34;103178.22;1833382;77;21105;-70
2021/11/16 04:38:58;;;;;;;20.17;10.45;;;;;;;-4.15;71.36;103183.84;1833140;78;20931;-70
2021/11/16 04:41:25;;;;;;;20.40;8.18;;;;;;;-4.17;72.13;103188.47;1833116;78;20906;-70
2021/11/16 04:43:54;;;;;;;39.03;18.40;;;;;;;-4.12;72.64;103184.82;1832921;77;21451;-71
2021/11/16 04:46:23;;;;;;;11.53;7.17;;;;;;;-4.05;72.56;103187.23;1833372;78;20919;-71
2021/11/16 04:54:15;;;;;;;11.65;6.37;;;;;;;-3.82;72.76;103198.05;1833016;78;20911;-72
2021/11/16 05:04:50;;;;;;;9.15;5.65;;;;;;;-3.45;72.23;103206.33;1833087;77;20859;-71
2021/11/16 05:07:18;;;;;;;8.83;6.00;;;;;;;-3.40;72.08;103207.00;1833324;77;20903;-72
2021/11/16 05:09:49;;;;;;;13.53;6.05;;;;;;;-3.34;71.83;103214.05;1833059;77;20852;-70
2021/11/16 05:12:17;;;;;;;9.23;6.40;;;;;;;-3.28;71.75;103218.14;1833378;78;20817;-71
2021/11/16 05:14:44;;;;;;;13.20;6.75;;;;;;;-3.22;71.56;103220.09;1833154;78;21123;-72
2021/11/16 05:17:12;;;;;;;28.07;12.05;;;;;;;-3.15;71.51;103223.34;1833210;78;20939;-71
2021/11/16 05:19:39;;;;;;;31.73;17.25;;;;;;;-3.04;71.52;103232.33;1833022;78;21455;-71
2021/11/16 05:22:06;;;;;;;20.23;8.00;;;;;;;-2.96;71.27;103230.05;1832925;76;20860;-71
2021/11/16 05:24:34;;;;;;;54.77;24.27;;;;;;;-2.89;70.90;103226.92;1833064;78;21006;-71
2021/11/16 05:27:01;;;;;;;77.47;29.30;;;;;;;-2.86;70.66;103237.29;1829422;78;21190;-72
2021/11/16 05:29:28;;;;;;;96.82;36.70;;;;;;;-2.84;70.33;103233.09;1815075;77;20951;-72
2021/11/16 05:31:55;;;;;;;85.32;33.70;;;;;;;-2.85;69.81;103233.02;1815137;77;20908;-70
2021/11/16 05:34:21;;;;;;;67.25;30.37;;;;;;;-2.92;69.38;103243.47;1815116;79;20915;-70
2021/11/16 05:36:48;;;;;;;69.00;31.85;;;;;;;-2.98;69.18;103247.08;1815137;79;21475;-74
2021/11/16 05:39:15;;;;;;;58.42;26.15;;;;;;;-3.04;69.21;103243.02;1815017;79;22146;-72
2021/11/16 05:41:44;;;;;;;62.65;32.05;;;;;;;-3.03;69.21;103248.60;1815084;77;20841;-72
2021/11/16 05:44:11;;;;;;;58.42;26.82;;;;;;;-3.04;69.19;103258.00;1815348;77;20920;-73
2021/11/16 05:46:38;;;;;;;46.95;24.10;;;;;;;-3.04;69.04;103266.12;1814828;77;20943;-72
2021/11/16 05:49:05;;;;;;;51.23;25.10;;;;;;;-3.05;69.17;103260.50;1815183;79;20845;-72
2021/11/16 05:51:32;;;;;;;66.40;26.65;;;;;;;-3.01;69.29;103261.96;1815132;79;21114;-73
2021/11/16 05:54:02;;;;;;;59.60;28.30;;;;;;;-2.98;69.33;103268.52;1815282;79;21437;-72
2021/11/16 05:56:33;;;;;;;58.02;28.32;;;;;;;-2.92;69.36;103274.27;1815083;79;20955;-71
2021/11/16 05:59:00;;;;;;;57.75;30.17;;;;;;;-2.88;69.39;103270.15;1815115;77;21338;-71
2021/11/16 06:01:30;;;;;;;71.42;33.45;;;;;;;-2.84;69.22;103263.03;1815169;79;21139;-72
2021/11/16 06:03:57;;;;;;;62.23;30.37;;;;;;;-2.88;69.42;103254.74;1815389;79;21830;-71
2021/11/16 06:06:27;;;;;;;53.42;28.25;;;;;;;-2.83;69.52;103268.62;1814937;79;20864;-72
2021/11/16 06:08:55;;;;;;;66.67;33.65;;;;;;;-2.83;69.61;103269.48;1815325;79;20908;-72
2021/11/16 06:11:23;;;;;;;69.92;37.80;;;;;;;-2.76;69.58;103281.77;1815048;77;20936;-72
2021/11/16 06:13:51;;;;;;;68.97;37.25;;;;;;;-2.80;69.81;103277.33;1815352;77;21037;-71
2021/11/16 06:16:20;;;;;;;60.12;34.50;;;;;;;-2.80;70.05;103277.72;1814918;77;20911;-71
2021/11/16 06:18:53;;;;;;;57.10;31.75;;;;;;;-2.80;70.23;103276.05;1815352;79;20908;-72
2021/11/16 06:21:21;;;;;;;58.10;31.23;;;;;;;-2.77;70.38;103272.30;1813951;79;20959;-73
2021/11/16 06:23:49;;;;;;;62.90;28.05;;;;;;;-2.72;70.47;103272.47;1815013;79;20959;-73
2021/11/16 06:26:16;;;;;;;64.25;26.97;;;;;;;-2.67;70.63;103270.94;1815212;79;20911;-72
2021/11/16 06:28:42;;;;;;;51.00;24.72;;;;;;;-2.60;70.65;103271.66;1828667;78;20946;-71
2021/11/16 06:31:10;;;;;;;70.25;32.63;;;;;;;-2.55;70.73;103270.13;1832839;77;21431;-70
2021/11/16 06:33:37;;;;;;;68.07;32.58;;;;;;;-2.50;70.84;103267.31;1833318;78;20876;-71
2021/11/16 06:36:05;;;;;;;66.22;30.10;;;;;;;-2.41;70.87;103269.34;1833012;78;20887;-73
2021/11/16 06:38:32;;;;;;;55.17;29.40;;;;;;;-2.35;70.83;103272.14;1832915;78;21439;-71
2021/11/16 06:40:59;;;;;;;51.08;25.60;;;;;;;-2.28;70.79;103273.66;1833044;78;21496;-73
2021/11/16 06:43:29;;;;;;;50.80;26.73;;;;;;;-2.25;70.78;103272.05;1832879;78;20864;-72
2021/11/16 06:45:59;;;;;;;45.17;21.45;;;;;;;-2.19;70.81;103270.99;1832990;77;20880;-73
2021/11/16 06:48:27;;;;;;;42.17;20.20;;;;;;;-2.11;70.79;103276.42;1833232;78;20914;-73
2021/11/16 06:50:54;;;;;;;40.45;19.95;;;;;;;-2.05;70.84;103273.18;1832963;78;21487;-72
2021/11/16 06:53:32;;;;;;;43.55;20.43;;;;;;;-1.95;70.77;103277.83;1833243;78;21480;-74
2021/11/16 06:56:00;;;;;;;31.20;17.23;;;;;;;-1.85;70.76;103270.87;1832992;78;20962;-73
2021/11/16 06:58:28;;;;;;;32.85;17.30;;;;;;;-1.74;70.48;103270.83;1833308;78;20855;-74
2021/11/16 07:00:56;;;;;;;35.73;17.07;;;;;;;-1.69;70.40;103273.17;1832962;77;20915;-76
2021/11/16 07:03:24;;;;;;;32.67;17.00;;;;;;;-1.59;70.25;103270.48;1833317;77;21357;-72
2021/11/16 07:05:56;;;;;;;33.60;15.48;;;;;;;-1.51;70.07;103263.89;1833220;78;21184;-71
2021/11/16 07:08:38;;;;;;;37.10;16.12;;;;;;;-1.43;69.26;103264.55;1831946;78;20902;-71
2021/11/16 07:11:18;;;;;;;22.62;13.25;;;;;;;-1.35;68.76;103264.39;1833041;78;20903;-72
2021/11/16 07:14:06;;;;;;;31.15;15.43;;;;;;;-1.28;68.06;103259.48;1832798;77;20903;-72
2021/11/16 07:16:42;;;;;;;35.60;13.28;;;;;;;-1.22;67.60;103252.77;1833200;78;20923;-72
2021/11/16 07:19:11;;;;;;;30.43;12.10;;;;;;;-1.11;67.20;103248.43;1833325;77;21053;-73
2021/11/16 07:21:46;;;;;;;25.27;11.57;;;;;;;-1.02;66.68;103258.53;1833255;78;20911;-73
2021/11/16 07:24:19;;;;;;;25.70;11.30;;;;;;;-0.93;66.07;103250.69;1833366;78;20922;-73
2021/11/16 07:27:05;;;;;;;24.77;12.33;;;;;;;-0.85;65.79;103244.05;1833345;77;20879;-71
2021/11/16 07:29:38;;;;;;;28.30;10.82;;;;;;;-0.74;65.16;103239.63;1832990;78;21390;-73
2021/11/16 07:32:07;;;;;;;22.50;9.65;;;;;;;-0.65;64.43;103236.89;1833057;78;21134;-72
2021/11/16 07:34:35;;;;;;;29.65;10.43;;;;;;;-0.55;64.00;103239.34;1833226;78;20914;-72
2021/11/16 07:37:15;;;;;;;19.12;8.63;;;;;;;-0.47;63.58;103235.68;1833110;78;20907;-72
2021/11/16 07:39:48;;;;;;;11.63;6.65;;;;;;;-0.40;62.66;103234.14;1833001;78;20950;-72
2021/11/16 07:42:14;;;;;;;11.55;7.20;;;;;;;-0.34;62.31;103234.32;1833060;78;20887;-72
2021/11/16 07:44:43;;;;;;;7.50;4.92;;;;;;;-0.27;61.78;103237.52;1833108;78;21416;-73
2021/11/16 07:47:10;;;;;;;18.12;8.20;;;;;;;-0.21;61.03;103233.83;1831738;76;20970;-72
2021/11/16 07:49:42;;;;;;;13.93;7.47;;;;;;;-0.16;60.86;103234.81;1832897;77;21345;-72
2021/11/16 07:52:09;;;;;;;10.75;4.90;;;;;;;-0.08;60.68;103236.33;1831615;78;21422;-72
2021/11/16 07:54:36;;;;;;;11.55;5.55;;;;;;;-0.04;60.05;103235.15;1833114;78;21365;-73
2021/11/16 07:57:04;;;;;;;7.25;4.75;;;;;;;0.02;59.65;103242.58;1833481;78;21086;-73
2021/11/16 07:59:33;;;;;;;6.60;3.65;;;;;;;0.08;58.92;103241.46;1833051;77;20907;-72
2021/11/16 08:02:05;;;;;;;9.18;3.33;;;;;;;0.16;58.31;103234.80;1833310;77;21432;-73
2021/11/16 08:04:45;;;;;;;9.48;3.33;;;;;;;0.21;58.14;103238.36;1833075;78;21357;-73
2021/11/16 08:07:20;;;;;;;9.13;5.50;;;;;;;0.29;57.43;103248.86;1833319;77;20950;-72
2021/11/16 08:09:46;;;;;;;23.32;7.58;;;;;;;0.32;57.45;103235.63;1780555;78;21128;-73
2021/11/16 08:14:53;;;;;;;9.28;5.33;;;;;;;0.47;57.02;103238.11;1833089;77;20859;-71
2021/11/16 08:17:20;;;;;;;16.45;5.10;;;;;;;0.53;56.76;103234.39;1816857;78;20903;-73
2021/11/16 08:19:48;;;;;;;7.00;4.60;;;;;;;0.57;56.66;103230.63;1832928;78;21506;-75
2021/11/16 08:22:15;;;;;;;4.25;2.92;;;;;;;0.65;56.48;103224.38;1776061;78;21099;-71
2021/11/16 08:24:46;;;;;;;9.00;2.67;;;;;;;0.71;56.17;103218.46;1832933;77;20907;-72
2021/11/16 08:27:21;;;;;;;4.58;2.62;;;;;;;0.75;55.83;103227.60;1833211;78;20990;-72
2021/11/16 08:29:58;;;;;;;7.33;3.75;;;;;;;0.77;55.42;103218.61;1832985;77;20892;-71
2021/11/16 08:32:33;;;;;;;4.78;3.45;;;;;;;0.81;54.93;103223.88;1833030;78;21384;-71
2021/11/16 08:34:55;;;;;;;8.58;3.22;;;;;;;0.83;55.16;103211.88;1805568;78;21310;-71
2021/11/16 08:37:25;;;;;;;8.93;3.87;;;;;;;0.88;54.98;103208.09;1832876;78;20997;-73
2021/11/16 08:39:58;;;;;;;7.17;4.00;;;;;;;0.91;54.95;103204.31;1832954;77;20900;-72
2021/11/16 08:42:30;;;;;;;8.08;4.67;;;;;;;0.97;55.04;103200.97;1833090;78;21360;-72
2021/11/16 08:45:10;;;;;;;7.35;4.37;;;;;;;1.00;55.00;103203.21;1832189;78;20867;-73
2021/11/16 08:47:51;;;;;;;6.35;3.35;;;;;;;1.05;54.59;103204.60;1832909;77;22076;-71
2021/11/16 08:50:32;;;;;;;4.17;2.40;;;;;;;1.07;54.47;103191.30;1831964;77;20863;-72
2021/11/16 08:53:02;;;;;;;5.10;2.87;;;;;;;1.10;53.78;103187.90;1833466;77;21459;-72
2021/11/16 08:55:31;;;;;;;5.15;3.17;;;;;;;1.11;53.93;103183.16;1832922;77;21017;-72
2021/11/16 08:57:58;;;;;;;6.80;2.60;;;;;;;1.15;53.95;103188.85;1833334;78;20915;-71
2021/11/16 09:00:39;;;;;;;5.85;2.83;;;;;;;1.17;53.67;103184.16;1832939;78;21148;-72
2021/11/16 09:03:09;;;;;;;4.75;2.37;;;;;;;1.23;53.65;103174.38;1807484;78;20872;-73
2021/11/16 09:05:43;;;;;;;2.67;2.47;;;;;;;1.26;53.64;103169.27;1833064;78;21392;-71
2021/11/16 09:08:19;;;;;;;10.03;4.00;;;;;;;1.27;53.80;103168.84;1833312;78;20879;-73
2021/11/16 09:10:47;;;;;;;15.75;7.37;;;;;;;1.27;53.94;103168.44;1832956;78;20871;-71
2021/11/16 09:13:16;;;;;;;14.38;7.25;;;;;;;1.29;53.75;103160.69;1833398;78;21129;-72
2021/11/16 09:15:53;;;;;;;13.40;6.90;;;;;;;1.31;53.88;103157.72;1832846;78;20888;-72
2021/11/16 09:18:27;;;;;;;8.38;3.98;;;;;;;1.32;53.68;103159.05;1832656;78;20887;-71
2021/11/16 09:20:58;;;;;;;9.23;3.72;;;;;;;1.35;53.68;103149.19;1832979;77;21377;-73
2021/11/16 09:23:35;;;;;;;6.95;4.25;;;;;;;1.38;53.63;103138.89;1833505;78;20872;-72
2021/11/16 09:26:52;;;;;;;10.43;4.72;;;;;;;1.42;53.29;103139.41;1832809;77;21144;-70
2021/11/16 09:28:56;;;;;;;10.48;4.72;;;;;;;1.43;53.38;103136.86;1819785;77;20993;-71
2021/11/16 09:31:44;;;;;;;12.28;6.28;;;;;;;1.48;53.36;103126.59;1824985;77;20915;-71
2021/11/16 09:34:19;;;;;;;12.50;6.97;;;;;;;1.53;53.33;103128.84;1815304;78;20927;-71
2021/11/16 09:36:56;;;;;;;17.00;7.53;;;;;;;1.56;53.36;103127.62;1833194;77;21096;-69
2021/11/16 09:39:28;;;;;;;13.03;6.50;;;;;;;1.62;53.41;103124.25;1833146;78;21526;-69
2021/11/16 09:41:59;;;;;;;7.35;4.70;;;;;;;1.67;53.11;103120.05;1832969;78;20875;-71
2021/11/16 09:44:41;;;;;;;11.12;6.25;;;;;;;1.71;52.84;103119.66;1832177;76;20922;-70
2021/11/16 09:47:22;;;;;;;11.95;7.08;;;;;;;1.71;52.77;103113.20;1832000;78;20887;-69
2021/11/16 09:50:03;;;;;;;8.48;3.60;;;;;;;1.73;52.77;103107.20;1833377;78;20970;-71
2021/11/16 09:52:40;;;;;;;7.03;3.08;;;;;;;1.74;52.75;103106.80;1832919;78;21183;-71
2021/11/16 09:55:33;;;;;;;7.08;3.50;;;;;;;1.74;52.86;103111.98;1832628;78;21409;-73
2021/11/16 09:58:09;;;;;;;4.70;2.90;;;;;;;1.74;52.94;103106.80;1833088;78;21479;-72
2021/11/16 10:00:40;;;;;;;5.75;3.05;;;;;;;1.78;53.13;103104.69;1803131;78;20883;-71
2021/11/16 10:03:17;;;;;;;7.85;3.05;;;;;;;1.78;53.25;103104.30;1832836;77;20927;-71
2021/11/16 10:05:47;;;;;;;5.08;3.10;;;;;;;1.83;53.30;103101.35;1833214;77;21747;-72
2021/11/16 10:08:16;;;;;;;9.65;5.80;;;;;;;1.85;53.11;103107.42;1832959;77;20870;-73
2021/11/16 10:10:47;;;;;;;10.90;5.50;;;;;;;1.95;52.78;103095.49;1833258;78;20851;-71
2021/11/16 10:13:17;;;;;;;9.78;3.10;;;;;;;2.16;52.67;103096.27;1832884;78;20860;-71
2021/11/16 10:15:48;;;;;;;6.42;2.87;;;;;;;2.41;52.37;103085.83;1833328;78;20883;-72
2021/11/16 10:18:17;;;;;;;11.55;3.50;;;;;;;2.66;52.42;103084.85;1833091;77;21967;-72
2021/11/16 10:20:46;;;;;;;7.25;3.55;;;;;;;2.96;51.72;103074.00;1833205;77;20888;-72
2021/11/16 10:23:31;;;;;;;4.33;2.92;;;;;;;3.32;50.75;103090.36;1832980;78;20950;-72
2021/11/16 10:25:59;;;;;;;5.20;2.92;;;;;;;3.63;49.48;103078.13;1833133;78;21436;-73
2021/11/16 10:28:26;;;;;;;4.55;2.72;;;;;;;3.90;48.72;103067.09;1831300;78;20911;-72
2021/11/16 10:30:58;;;;;;;3.65;3.30;;;;;;;4.13;48.47;103062.90;1814896;79;21106;-72
2021/11/16 10:33:35;;;;;;;6.47;3.05;;;;;;;4.44;48.10;103063.08;1815389;78;20920;-72
2021/11/16 10:36:08;;;;;;;8.78;4.72;;;;;;;4.72;47.34;103052.38;1814908;79;20927;-72
2021/11/16 10:38:38;;;;;;;16.65;8.00;;;;;;;5.05;46.61;103055.09;1815463;77;20928;-71
2021/11/16 10:41:09;;;;;;;19.12;10.88;;;;;;;5.31;45.66;103049.47;1814918;79;21007;-71
2021/11/16 10:43:50;;;;;;;20.17;9.03;;;;;;;5.57;44.86;103044.73;1815374;79;21089;-71
2021/11/16 10:46:21;;;;;;;11.83;6.90;;;;;;;5.88;43.91;103045.58;1814942;79;20876;-71
2021/11/16 10:48:48;;;;;;;12.78;6.35;;;;;;;6.14;43.31;103032.99;1815182;78;21392;-71
2021/11/16 10:51:17;;;;;;;10.15;5.70;;;;;;;6.42;43.23;103042.46;1759189;79;20880;-72
2021/11/16 10:53:49;;;;;;;5.47;4.17;;;;;;;6.61;42.90;103031.95;1815101;79;20959;-71
2021/11/16 10:56:18;;;;;;;7.53;4.95;;;;;;;6.78;42.07;103031.44;1815190;78;21130;-73
2021/11/16 10:58:46;;;;;;;10.95;4.58;;;;;;;6.83;41.50;103029.66;1815503;78;21385;-71
2021/11/16 11:01:22;;;;;;;7.92;4.67;;;;;;;6.81;41.72;103017.06;1815603;79;20927;-72
2021/11/16 11:03:57;;;;;;;6.55;4.87;;;;;;;6.92;41.78;103010.94;1814776;79;20982;-72
2021/11/16 11:06:24;;;;;;;10.90;6.00;;;;;;;6.90;41.04;103014.84;1814767;79;20942;-72
2021/11/16 11:09:04;;;;;;;7.30;4.72;;;;;;;6.62;40.87;103004.99;1815448;79;21098;-70
2021/11/16 11:11:42;;;;;;;7.87;4.67;;;;;;;6.39;41.24;103010.32;1815477;79;20876;-69
2021/11/16 11:14:18;;;;;;;9.88;5.25;;;;;;;6.10;41.56;103004.77;1815391;79;20892;-72
2021/11/16 11:17:01;;;;;;;11.80;5.62;;;;;;;5.85;42.08;102997.42;1815015;79;20923;-70
2021/11/16 11:19:34;;;;;;;15.18;6.72;;;;;;;5.66;42.18;102997.02;1814282;79;20931;-70
2021/11/16 11:22:27;;;;;;;9.50;5.00;;;;;;;5.50;42.60;102994.86;1815295;79;21053;-70
2021/11/16 11:27:44;;;;;;;15.20;6.92;;;;;;;5.23;43.36;102993.98;1815001;77;20873;-70
2021/11/16 11:30:13;;;;;;;13.20;7.40;;;;;;;5.07;43.44;102992.22;1814892;77;20998;-69
2021/11/16 11:32:42;;;;;;;18.77;7.30;;;;;;;4.86;43.69;102983.53;1815149;78;20979;-71
2021/11/16 11:35:17;;;;;;;21.02;8.90;;;;;;;4.72;44.08;102986.10;1815402;79;21102;-72
2021/11/16 11:37:52;;;;;;;20.65;7.62;;;;;;;4.66;44.05;102973.52;1814970;77;21338;-70
2021/11/16 11:40:32;;;;;;;13.08;6.22;;;;;;;4.60;44.27;102977.39;1815074;79;21002;-71
2021/11/16 11:43:08;;;;;;;9.58;4.30;;;;;;;4.54;44.45;102966.13;1815375;79;20987;-71
2021/11/16 11:45:40;;;;;;;6.58;3.02;;;;;;;4.46;44.68;102966.53;1815190;79;20924;-71
2021/11/16 11:48:17;;;;;;;3.65;2.55;;;;;;;4.36;44.85;102963.48;1815335;79;21138;-71
2021/11/16 11:50:56;;;;;;;6.17;2.98;;;;;;;4.27;45.03;102957.81;1814664;79;21458;-71
2021/11/16 11:53:26;;;;;;;6.83;2.87;;;;;;;4.25;45.32;102955.64;1815253;79;20912;-70
2021/11/16 11:56:03;;;;;;;9.23;5.90;;;;;;;4.31;45.56;102958.67;1814949;79;21405;-73